sensor_id;sensor_type;location;lat;lon;timestamp;temperature;humidity
45012;DHT22;63444;48.148;11.542;2024-03-22T00:01:54;9.70;99.90
45012;DHT22;63444;48.148;11.542;2024-03-22T00:04:20;9.70;99.90
45012;DHT22;63444;48.148;11.542;2024-03-22T00:06:48;9.70;99.90
45012;DHT22;63444;48.148;11.542;2024-03-22T00:09:15;9.70;99.90
45012;DHT22;63444;48.148;11.542;2024-03-22T00:11:42;9.70;99.90
45012;DHT22;63444;48.148;11.542;2024-03-22T00:14:09;9.50;99.90
45012;DHT22;63444;48.148;11.542;2024-03-22T00:16:35;9.50;99.90
45012;DHT22;63444;48.148;11.542;2024-03-22T00:19:01;9.50;99.90
45012;DHT22;63444;48.148;11.542;2024-03-22T00:21:27;9.50;99.90
45012;DHT22;63444;48.148;11.542;2024-03-22T00:23:53;9.50;99.90
45012;DHT22;63444;48.148;11.542;2024-03-22T00:26:19;9.50;99.90
45012;DHT22;63444;48.148;11.542;2024-03-22T00:28:45;9.40;99.90
45012;DHT22;63444;48.148;11.542;2024-03-22T00:31:10;9.40;99.90
45012;DHT22;63444;48.148;11.542;2024-03-22T00:33:38;9.40;99.90
45012;DHT22;63444;48.148;11.542;2024-03-22T00:36:04;9.20;99.90
45012;DHT22;63444;48.148;11.542;2024-03-22T00:38:29;9.40;99.90
45012;DHT22;63444;48.148;11.542;2024-03-22T00:40:55;9.40;99.90
45012;DHT22;63444;48.148;11.542;2024-03-22T00:43:21;9.40;99.90
45012;DHT22;63444;48.148;11.542;2024-03-22T00:45:47;9.40;99.90
45012;DHT22;63444;48.148;11.542;2024-03-22T00:48:13;9.40;99.90
45012;DHT22;63444;48.148;11.542;2024-03-22T00:50:39;9.40;99.90
45012;DHT22;63444;48.148;11.542;2024-03-22T00:53:05;9.40;99.90
45012;DHT22;63444;48.148;11.542;2024-03-22T00:55:32;9.40;99.90
45012;DHT22;63444;48.148;11.542;2024-03-22T00:57:57;9.40;99.90
45012;DHT22;63444;48.148;11.542;2024-03-22T01:00:23;9.40;99.90
45012;DHT22;63444;48.148;11.542;2024-03-22T01:02:50;9.40;99.90
45012;DHT22;63444;48.148;11.542;2024-03-22T01:05:16;9.40;99.90
45012;DHT22;63444;48.148;11.542;2024-03-22T01:07:42;9.40;99.90
45012;DHT22;63444;48.148;11.542;2024-03-22T01:10:08;9.40;99.90
45012;DHT22;63444;48.148;11.542;2024-03-22T01:12:33;9.40;99.90
45012;DHT22;63444;48.148;11.542;2024-03-22T01:14:59;9.40;99.90
45012;DHT22;63444;48.148;11.542;2024-03-22T01:17:25;9.40;99.90
45012;DHT22;63444;48.148;11.542;2024-03-22T01:19:51;9.40;99.90
45012;DHT22;63444;48.148;11.542;2024-03-22T01:22:17;9.40;99.90
45012;DHT22;63444;48.148;11.542;2024-03-22T01:24:44;9.40;99.90
45012;DHT22;63444;48.148;11.542;2024-03-22T01:27:10;9.50;99.90
45012;DHT22;63444;48.148;11.542;2024-03-22T01:29:35;9.50;99.90
45012;DHT22;63444;48.148;11.542;2024-03-22T01:32:02;9.50;99.90
45012;DHT22;63444;48.148;11.542;2024-03-22T01:34:27;9.40;99.90
45012;DHT22;63444;48.148;11.542;2024-03-22T01:36:53;9.40;99.90
45012;DHT22;63444;48.148;11.542;2024-03-22T01:39:20;9.40;99.90
45012;DHT22;63444;48.148;11.542;2024-03-22T01:41:50;9.40;99.90
45012;DHT22;63444;48.148;11.542;2024-03-22T01:44:17;9.40;99.90
45012;DHT22;63444;48.148;11.542;2024-03-22T01:46:43;9.40;99.90
45012;DHT22;63444;48.148;11.542;2024-03-22T01:49:11;9.40;99.90
45012;DHT22;63444;48.148;11.542;2024-03-22T01:51:39;9.40;99.90
45012;DHT22;63444;48.148;11.542;2024-03-22T01:54:09;9.40;99.90
45012;DHT22;63444;48.148;11.542;2024-03-22T01:56:38;9.40;99.90
45012;DHT22;63444;48.148;11.542;2024-03-22T01:59:05;9.30;99.90
45012;DHT22;63444;48.148;11.542;2024-03-22T02:01:32;9.30;99.90
45012;DHT22;63444;48.148;11.542;2024-03-22T02:03:58;9.20;99.90
45012;DHT22;63444;48.148;11.542;2024-03-22T02:06:24;9.20;99.90
45012;DHT22;63444;48.148;11.542;2024-03-22T02:08:50;9.20;99.90
45012;DHT22;63444;48.148;11.542;2024-03-22T02:11:15;9.20;99.90
45012;DHT22;63444;48.148;11.542;2024-03-22T02:13:41;9.20;99.90
45012;DHT22;63444;48.148;11.542;2024-03-22T02:16:08;9.20;99.90
45012;DHT22;63444;48.148;11.542;2024-03-22T02:18:34;9.20;99.90
45012;DHT22;63444;48.148;11.542;2024-03-22T02:21:00;9.20;99.90
45012;DHT22;63444;48.148;11.542;2024-03-22T02:23:32;9.20;99.90
45012;DHT22;63444;48.148;11.542;2024-03-22T02:25:58;9.20;99.90
45012;DHT22;63444;48.148;11.542;2024-03-22T02:28:23;9.10;99.90
45012;DHT22;63444;48.148;11.542;2024-03-22T02:30:49;9.20;99.90
45012;DHT22;63444;48.148;11.542;2024-03-22T02:33:15;9.10;99.90
45012;DHT22;63444;48.148;11.542;2024-03-22T02:35:40;9.10;99.90
45012;DHT22;63444;48.148;11.542;2024-03-22T02:38:07;9.10;99.90
45012;DHT22;63444;48.148;11.542;2024-03-22T02:40:33;9.00;99.90
45012;DHT22;63444;48.148;11.542;2024-03-22T02:42:59;9.10;99.90
45012;DHT22;63444;48.148;11.542;2024-03-22T02:45:24;9.10;99.90
45012;DHT22;63444;48.148;11.542;2024-03-22T02:47:50;9.00;99.90
45012;DHT22;63444;48.148;11.542;2024-03-22T02:50:16;9.00;99.90
45012;DHT22;63444;48.148;11.542;2024-03-22T02:52:41;9.00;99.90
45012;DHT22;63444;48.148;11.542;2024-03-22T02:55:07;9.00;99.90
45012;DHT22;63444;48.148;11.542;2024-03-22T02:57:33;9.00;99.90
45012;DHT22;63444;48.148;11.542;2024-03-22T03:00:00;9.00;99.90
45012;DHT22;63444;48.148;11.542;2024-03-22T03:02:26;9.00;99.90
45012;DHT22;63444;48.148;11.542;2024-03-22T03:04:51;9.00;99.90
45012;DHT22;63444;48.148;11.542;2024-03-22T03:07:17;8.90;99.90
45012;DHT22;63444;48.148;11.542;2024-03-22T03:09:43;8.90;99.90
45012;DHT22;63444;48.148;11.542;2024-03-22T03:12:08;8.90;99.90
45012;DHT22;63444;48.148;11.542;2024-03-22T03:14:34;8.90;99.90
45012;DHT22;63444;48.148;11.542;2024-03-22T03:17:00;8.90;99.90
45012;DHT22;63444;48.148;11.542;2024-03-22T03:19:27;8.80;99.90
45012;DHT22;63444;48.148;11.542;2024-03-22T03:21:55;8.80;99.90
45012;DHT22;63444;48.148;11.542;2024-03-22T03:24:21;8.80;99.90
45012;DHT22;63444;48.148;11.542;2024-03-22T03:26:46;8.80;99.90
45012;DHT22;63444;48.148;11.542;2024-03-22T03:29:12;8.80;99.90
45012;DHT22;63444;48.148;11.542;2024-03-22T03:31:38;8.80;99.90
45012;DHT22;63444;48.148;11.542;2024-03-22T03:34:03;8.80;99.90
45012;DHT22;63444;48.148;11.542;2024-03-22T03:36:30;8.70;99.90
45012;DHT22;63444;48.148;11.542;2024-03-22T03:38:56;8.70;99.90
45012;DHT22;63444;48.148;11.542;2024-03-22T03:41:21;8.70;99.90
45012;DHT22;63444;48.148;11.542;2024-03-22T03:43:47;8.60;99.90
45012;DHT22;63444;48.148;11.542;2024-03-22T03:46:13;8.60;99.90
45012;DHT22;63444;48.148;11.542;2024-03-22T03:48:40;8.60;99.90
45012;DHT22;63444;48.148;11.542;2024-03-22T03:51:05;8.60;99.90
45012;DHT22;63444;48.148;11.542;2024-03-22T03:53:31;8.60;99.90
45012;DHT22;63444;48.148;11.542;2024-03-22T03:55:57;8.60;99.90
45012;DHT22;63444;48.148;11.542;2024-03-22T03:58:22;8.60;99.90
45012;DHT22;63444;48.148;11.542;2024-03-22T04:00:49;8.60;99.90
45012;DHT22;63444;48.148;11.542;2024-03-22T04:03:15;8.60;99.90
45012;DHT22;63444;48.148;11.542;2024-03-22T04:05:41;8.60;99.90
45012;DHT22;63444;48.148;11.542;2024-03-22T04:08:06;8.60;99.90
45012;DHT22;63444;48.148;11.542;2024-03-22T04:10:32;8.60;99.90
45012;DHT22;63444;48.148;11.542;2024-03-22T04:12:58;8.50;99.90
45012;DHT22;63444;48.148;11.542;2024-03-22T04:15:24;8.60;99.90
45012;DHT22;63444;48.148;11.542;2024-03-22T04:17:49;8.60;99.90
45012;DHT22;63444;48.148;11.542;2024-03-22T04:20:15;8.60;99.90
45012;DHT22;63444;48.148;11.542;2024-03-22T04:22:41;8.50;99.90
45012;DHT22;63444;48.148;11.542;2024-03-22T04:25:07;8.50;99.90
45012;DHT22;63444;48.148;11.542;2024-03-22T04:27:36;8.50;99.90
45012;DHT22;63444;48.148;11.542;2024-03-22T04:30:02;8.50;99.90
45012;DHT22;63444;48.148;11.542;2024-03-22T04:32:28;8.50;99.90
45012;DHT22;63444;48.148;11.542;2024-03-22T04:34:53;8.50;99.90
45012;DHT22;63444;48.148;11.542;2024-03-22T04:37:20;8.60;99.90
45012;DHT22;63444;48.148;11.542;2024-03-22T04:39:46;8.60;99.90
45012;DHT22;63444;48.148;11.542;2024-03-22T04:42:12;8.50;99.90
45012;DHT22;63444;48.148;11.542;2024-03-22T04:44:39;8.60;99.90
45012;DHT22;63444;48.148;11.542;2024-03-22T04:47:05;8.60;99.90
45012;DHT22;63444;48.148;11.542;2024-03-22T04:49:30;8.60;99.90
45012;DHT22;63444;48.148;11.542;2024-03-22T04:51:56;8.50;99.90
45012;DHT22;63444;48.148;11.542;2024-03-22T04:54:22;8.50;99.90
45012;DHT22;63444;48.148;11.542;2024-03-22T04:56:48;8.50;99.90
45012;DHT22;63444;48.148;11.542;2024-03-22T04:59:13;8.50;99.90
45012;DHT22;63444;48.148;11.542;2024-03-22T05:01:39;8.50;99.90
45012;DHT22;63444;48.148;11.542;2024-03-22T05:04:04;8.50;99.90
45012;DHT22;63444;48.148;11.542;2024-03-22T05:06:30;8.50;99.90
45012;DHT22;63444;48.148;11.542;2024-03-22T05:08:56;8.50;99.90
45012;DHT22;63444;48.148;11.542;2024-03-22T05:11:21;8.50;99.90
45012;DHT22;63444;48.148;11.542;2024-03-22T05:13:50;8.50;99.90
45012;DHT22;63444;48.148;11.542;2024-03-22T05:16:16;8.50;99.90
45012;DHT22;63444;48.148;11.542;2024-03-22T05:18:42;8.50;99.90
45012;DHT22;63444;48.148;11.542;2024-03-22T05:21:10;8.50;99.90
45012;DHT22;63444;48.148;11.542;2024-03-22T05:23:37;8.50;99.90
45012;DHT22;63444;48.148;11.542;2024-03-22T05:26:03;8.50;99.90
45012;DHT22;63444;48.148;11.542;2024-03-22T05:28:29;8.60;99.90
45012;DHT22;63444;48.148;11.542;2024-03-22T05:30:56;8.60;99.90
45012;DHT22;63444;48.148;11.542;2024-03-22T05:33:21;8.60;99.90
45012;DHT22;63444;48.148;11.542;2024-03-22T05:35:47;8.70;99.90
45012;DHT22;63444;48.148;11.542;2024-03-22T05:38:13;8.70;99.90
45012;DHT22;63444;48.148;11.542;2024-03-22T05:40:38;8.70;99.90
45012;DHT22;63444;48.148;11.542;2024-03-22T05:43:04;8.70;99.90
45012;DHT22;63444;48.148;11.542;2024-03-22T05:45:30;8.70;99.90
45012;DHT22;63444;48.148;11.542;2024-03-22T05:47:55;8.80;99.90
45012;DHT22;63444;48.148;11.542;2024-03-22T05:50:21;8.80;99.90
45012;DHT22;63444;48.148;11.542;2024-03-22T05:52:47;8.70;99.90
45012;DHT22;63444;48.148;11.542;2024-03-22T05:55:13;8.80;99.90
45012;DHT22;63444;48.148;11.542;2024-03-22T05:57:38;8.90;99.90
45012;DHT22;63444;48.148;11.542;2024-03-22T06:00:05;8.90;99.90
45012;DHT22;63444;48.148;11.542;2024-03-22T06:02:32;8.90;99.90
45012;DHT22;63444;48.148;11.542;2024-03-22T06:04:58;8.90;99.90
45012;DHT22;63444;48.148;11.542;2024-03-22T06:07:24;8.90;99.90
45012;DHT22;63444;48.148;11.542;2024-03-22T06:09:51;9.00;99.90
45012;DHT22;63444;48.148;11.542;2024-03-22T06:12:18;9.00;99.90
45012;DHT22;63444;48.148;11.542;2024-03-22T06:14:44;9.10;99.90
45012;DHT22;63444;48.148;11.542;2024-03-22T06:17:10;9.10;99.90
45012;DHT22;63444;48.148;11.542;2024-03-22T06:19:37;9.10;99.90
45012;DHT22;63444;48.148;11.542;2024-03-22T06:22:03;9.20;99.90
45012;DHT22;63444;48.148;11.542;2024-03-22T06:24:29;9.20;99.90
45012;DHT22;63444;48.148;11.542;2024-03-22T06:26:55;9.20;99.90
45012;DHT22;63444;48.148;11.542;2024-03-22T06:29:21;9.20;99.90
45012;DHT22;63444;48.148;11.542;2024-03-22T06:31:47;9.20;99.90
45012;DHT22;63444;48.148;11.542;2024-03-22T06:34:15;9.20;99.90
45012;DHT22;63444;48.148;11.542;2024-03-22T06:36:41;9.30;99.90
45012;DHT22;63444;48.148;11.542;2024-03-22T06:39:07;9.30;99.90
45012;DHT22;63444;48.148;11.542;2024-03-22T06:41:34;9.40;99.90
45012;DHT22;63444;48.148;11.542;2024-03-22T06:44:00;9.40;99.90
45012;DHT22;63444;48.148;11.542;2024-03-22T06:46:27;9.50;99.90
45012;DHT22;63444;48.148;11.542;2024-03-22T06:48:53;9.60;99.90
45012;DHT22;63444;48.148;11.542;2024-03-22T06:51:19;9.70;99.90
45012;DHT22;63444;48.148;11.542;2024-03-22T06:53:45;9.80;99.90
45012;DHT22;63444;48.148;11.542;2024-03-22T06:56:11;9.80;99.90
45012;DHT22;63444;48.148;11.542;2024-03-22T06:58:40;9.90;99.90
45012;DHT22;63444;48.148;11.542;2024-03-22T07:01:06;10.00;99.90
45012;DHT22;63444;48.148;11.542;2024-03-22T07:03:32;10.20;99.90
45012;DHT22;63444;48.148;11.542;2024-03-22T07:05:58;10.30;99.90
45012;DHT22;63444;48.148;11.542;2024-03-22T07:08:24;10.50;99.90
45012;DHT22;63444;48.148;11.542;2024-03-22T07:10:50;10.80;99.90
45012;DHT22;63444;48.148;11.542;2024-03-22T07:13:18;11.00;99.90
45012;DHT22;63444;48.148;11.542;2024-03-22T07:15:47;11.20;99.90
45012;DHT22;63444;48.148;11.542;2024-03-22T07:18:16;11.50;99.90
45012;DHT22;63444;48.148;11.542;2024-03-22T07:20:42;11.70;99.90
45012;DHT22;63444;48.148;11.542;2024-03-22T07:23:08;11.90;99.90
45012;DHT22;63444;48.148;11.542;2024-03-22T07:25:34;12.20;99.90
45012;DHT22;63444;48.148;11.542;2024-03-22T07:28:00;12.40;99.90
45012;DHT22;63444;48.148;11.542;2024-03-22T07:30:26;12.70;99.90
45012;DHT22;63444;48.148;11.542;2024-03-22T07:32:51;12.90;99.90
45012;DHT22;63444;48.148;11.542;2024-03-22T07:35:17;13.10;99.90
45012;DHT22;63444;48.148;11.542;2024-03-22T07:37:43;13.20;99.90
45012;DHT22;63444;48.148;11.542;2024-03-22T07:40:10;13.30;99.90
45012;DHT22;63444;48.148;11.542;2024-03-22T07:42:36;13.40;99.90
45012;DHT22;63444;48.148;11.542;2024-03-22T07:45:01;13.40;99.90
45012;DHT22;63444;48.148;11.542;2024-03-22T07:47:27;13.50;99.90
45012;DHT22;63444;48.148;11.542;2024-03-22T07:49:53;13.50;99.90
45012;DHT22;63444;48.148;11.542;2024-03-22T07:52:19;13.50;99.90
45012;DHT22;63444;48.148;11.542;2024-03-22T07:54:45;13.60;99.90
45012;DHT22;63444;48.148;11.542;2024-03-22T07:57:11;13.60;99.90
45012;DHT22;63444;48.148;11.542;2024-03-22T07:59:36;13.60;99.90
45012;DHT22;63444;48.148;11.542;2024-03-22T08:02:02;13.70;99.90
45012;DHT22;63444;48.148;11.542;2024-03-22T08:04:29;13.70;99.90
45012;DHT22;63444;48.148;11.542;2024-03-22T08:06:54;13.80;99.90
45012;DHT22;63444;48.148;11.542;2024-03-22T08:09:20;13.90;99.90
45012;DHT22;63444;48.148;11.542;2024-03-22T08:11:47;13.90;99.90
45012;DHT22;63444;48.148;11.542;2024-03-22T08:14:14;14.00;99.90
45012;DHT22;63444;48.148;11.542;2024-03-22T08:16:39;14.10;99.90
45012;DHT22;63444;48.148;11.542;2024-03-22T08:19:05;14.20;99.90
45012;DHT22;63444;48.148;11.542;2024-03-22T08:21:32;14.30;99.90
45012;DHT22;63444;48.148;11.542;2024-03-22T08:23:57;14.30;99.90
45012;DHT22;63444;48.148;11.542;2024-03-22T08:26:23;14.40;99.90
45012;DHT22;63444;48.148;11.542;2024-03-22T08:28:49;14.50;99.90
45012;DHT22;63444;48.148;11.542;2024-03-22T08:31:15;14.70;99.90
45012;DHT22;63444;48.148;11.542;2024-03-22T08:33:42;14.80;99.90
45012;DHT22;63444;48.148;11.542;2024-03-22T08:36:08;14.90;99.90
45012;DHT22;63444;48.148;11.542;2024-03-22T08:38:33;15.00;99.90
45012;DHT22;63444;48.148;11.542;2024-03-22T08:40:59;15.10;99.90
45012;DHT22;63444;48.148;11.542;2024-03-22T08:43:25;15.30;99.90
45012;DHT22;63444;48.148;11.542;2024-03-22T08:45:53;15.40;99.90
45012;DHT22;63444;48.148;11.542;2024-03-22T08:48:18;15.60;99.90
45012;DHT22;63444;48.148;11.542;2024-03-22T08:50:45;15.70;99.90
45012;DHT22;63444;48.148;11.542;2024-03-22T08:53:10;15.80;99.90
45012;DHT22;63444;48.148;11.542;2024-03-22T08:55:36;15.90;99.90
45012;DHT22;63444;48.148;11.542;2024-03-22T08:58:03;16.10;99.90
45012;DHT22;63444;48.148;11.542;2024-03-22T09:00:29;16.30;99.90
45012;DHT22;63444;48.148;11.542;2024-03-22T09:02:55;16.40;99.90
45012;DHT22;63444;48.148;11.542;2024-03-22T09:05:20;16.50;99.90
45012;DHT22;63444;48.148;11.542;2024-03-22T09:07:46;16.70;99.90
45012;DHT22;63444;48.148;11.542;2024-03-22T09:10:13;16.90;99.90
45012;DHT22;63444;48.148;11.542;2024-03-22T09:12:39;17.00;99.90
45012;DHT22;63444;48.148;11.542;2024-03-22T09:15:05;17.00;99.90
45012;DHT22;63444;48.148;11.542;2024-03-22T09:17:32;17.10;99.90
45012;DHT22;63444;48.148;11.542;2024-03-22T09:19:58;17.20;99.90
45012;DHT22;63444;48.148;11.542;2024-03-22T09:22:24;17.30;99.90
45012;DHT22;63444;48.148;11.542;2024-03-22T09:24:50;17.40;99.90
45012;DHT22;63444;48.148;11.542;2024-03-22T09:27:15;17.50;99.90
45012;DHT22;63444;48.148;11.542;2024-03-22T09:29:41;17.60;99.90
45012;DHT22;63444;48.148;11.542;2024-03-22T09:32:09;17.80;99.90
45012;DHT22;63444;48.148;11.542;2024-03-22T09:34:35;17.80;99.90
45012;DHT22;63444;48.148;11.542;2024-03-22T09:37:00;17.80;99.90
45012;DHT22;63444;48.148;11.542;2024-03-22T09:39:27;18.00;99.90
45012;DHT22;63444;48.148;11.542;2024-03-22T09:41:57;18.10;99.90
45012;DHT22;63444;48.148;11.542;2024-03-22T09:44:23;18.20;99.90
45012;DHT22;63444;48.148;11.542;2024-03-22T09:46:52;18.30;99.90
45012;DHT22;63444;48.148;11.542;2024-03-22T09:49:18;18.50;99.90
45012;DHT22;63444;48.148;11.542;2024-03-22T09:51:47;18.50;99.90
45012;DHT22;63444;48.148;11.542;2024-03-22T09:54:14;18.60;99.90
45012;DHT22;63444;48.148;11.542;2024-03-22T09:56:40;18.70;99.90
45012;DHT22;63444;48.148;11.542;2024-03-22T09:59:06;18.70;99.90
45012;DHT22;63444;48.148;11.542;2024-03-22T10:01:34;18.80;99.90
45012;DHT22;63444;48.148;11.542;2024-03-22T10:04:01;18.80;99.90
45012;DHT22;63444;48.148;11.542;2024-03-22T10:06:26;18.90;99.90
45012;DHT22;63444;48.148;11.542;2024-03-22T10:08:52;18.90;99.90
45012;DHT22;63444;48.148;11.542;2024-03-22T10:11:18;19.00;99.90
45012;DHT22;63444;48.148;11.542;2024-03-22T10:13:44;19.20;99.70
45012;DHT22;63444;48.148;11.542;2024-03-22T10:16:10;19.40;98.90
45012;DHT22;63444;48.148;11.542;2024-03-22T10:18:37;19.60;99.20
45012;DHT22;63444;48.148;11.542;2024-03-22T10:21:06;19.70;98.80
45012;DHT22;63444;48.148;11.542;2024-03-22T10:23:32;19.70;98.30
45012;DHT22;63444;48.148;11.542;2024-03-22T10:25:58;19.80;97.80
45012;DHT22;63444;48.148;11.542;2024-03-22T10:28:26;19.90;97.50
45012;DHT22;63444;48.148;11.542;2024-03-22T10:30:52;19.90;97.80
45012;DHT22;63444;48.148;11.542;2024-03-22T10:33:22;19.90;98.00
45012;DHT22;63444;48.148;11.542;2024-03-22T10:35:54;19.90;97.60
45012;DHT22;63444;48.148;11.542;2024-03-22T10:38:22;19.90;97.20
45012;DHT22;63444;48.148;11.542;2024-03-22T10:40:48;19.80;96.90
45012;DHT22;63444;48.148;11.542;2024-03-22T10:43:16;19.70;97.40
45012;DHT22;63444;48.148;11.542;2024-03-22T10:45:42;19.70;97.50
45012;DHT22;63444;48.148;11.542;2024-03-22T10:48:11;19.70;97.60
45012;DHT22;63444;48.148;11.542;2024-03-22T10:50:41;19.80;97.50
45012;DHT22;63444;48.148;11.542;2024-03-22T10:53:17;19.70;97.50
45012;DHT22;63444;48.148;11.542;2024-03-22T10:55:47;19.50;97.40
45012;DHT22;63444;48.148;11.542;2024-03-22T10:58:21;19.40;97.50
45012;DHT22;63444;48.148;11.542;2024-03-22T11:00:51;19.50;97.60
45012;DHT22;63444;48.148;11.542;2024-03-22T11:03:20;19.50;97.60
45012;DHT22;63444;48.148;11.542;2024-03-22T11:05:46;19.50;97.60
45012;DHT22;63444;48.148;11.542;2024-03-22T11:08:13;19.40;97.40
45012;DHT22;63444;48.148;11.542;2024-03-22T11:10:39;19.30;97.50
45012;DHT22;63444;48.148;11.542;2024-03-22T11:13:06;19.40;97.80
45012;DHT22;63444;48.148;11.542;2024-03-22T11:15:33;19.40;97.50
45012;DHT22;63444;48.148;11.542;2024-03-22T11:18:01;19.40;97.40
45012;DHT22;63444;48.148;11.542;2024-03-22T11:20:27;19.40;97.40
45012;DHT22;63444;48.148;11.542;2024-03-22T11:22:54;19.30;97.30
45012;DHT22;63444;48.148;11.542;2024-03-22T11:25:20;19.30;97.10
45012;DHT22;63444;48.148;11.542;2024-03-22T11:27:46;19.20;97.60
45012;DHT22;63444;48.148;11.542;2024-03-22T11:30:12;19.20;97.70
45012;DHT22;63444;48.148;11.542;2024-03-22T11:32:39;19.20;97.60
45012;DHT22;63444;48.148;11.542;2024-03-22T11:35:13;19.30;97.50
45012;DHT22;63444;48.148;11.542;2024-03-22T11:37:41;19.20;97.50
45012;DHT22;63444;48.148;11.542;2024-03-22T11:40:09;19.10;97.30
45012;DHT22;63444;48.148;11.542;2024-03-22T11:42:46;19.20;97.40
45012;DHT22;63444;48.148;11.542;2024-03-22T11:45:16;19.20;97.80
45012;DHT22;63444;48.148;11.542;2024-03-22T11:47:43;19.00;97.90
45012;DHT22;63444;48.148;11.542;2024-03-22T11:50:11;19.10;98.30
45012;DHT22;63444;48.148;11.542;2024-03-22T11:52:43;19.20;97.80
45012;DHT22;63444;48.148;11.542;2024-03-22T11:55:10;19.10;97.50
45012;DHT22;63444;48.148;11.542;2024-03-22T11:57:36;19.10;97.50
45012;DHT22;63444;48.148;11.542;2024-03-22T12:00:03;19.10;97.50
45012;DHT22;63444;48.148;11.542;2024-03-22T12:02:35;19.20;97.70
45012;DHT22;63444;48.148;11.542;2024-03-22T12:05:00;19.20;97.70
45012;DHT22;63444;48.148;11.542;2024-03-22T12:07:26;19.20;97.50
45012;DHT22;63444;48.148;11.542;2024-03-22T12:09:52;19.20;97.50
45012;DHT22;63444;48.148;11.542;2024-03-22T12:12:17;19.20;97.50
45012;DHT22;63444;48.148;11.542;2024-03-22T12:14:46;19.20;97.80
45012;DHT22;63444;48.148;11.542;2024-03-22T12:17:12;19.20;97.80
45012;DHT22;63444;48.148;11.542;2024-03-22T12:19:37;19.10;97.50
45012;DHT22;63444;48.148;11.542;2024-03-22T12:22:03;19.00;97.70
45012;DHT22;63444;48.148;11.542;2024-03-22T12:24:32;19.00;98.10
45012;DHT22;63444;48.148;11.542;2024-03-22T12:26:57;19.00;98.30
45012;DHT22;63444;48.148;11.542;2024-03-22T12:29:23;18.80;98.20
45012;DHT22;63444;48.148;11.542;2024-03-22T12:31:49;18.60;97.60
45012;DHT22;63444;48.148;11.542;2024-03-22T12:34:15;18.40;98.10
45012;DHT22;63444;48.148;11.542;2024-03-22T12:36:42;18.30;99.10
45012;DHT22;63444;48.148;11.542;2024-03-22T12:39:08;18.20;98.90
45012;DHT22;63444;48.148;11.542;2024-03-22T12:41:33;18.20;99.10
45012;DHT22;63444;48.148;11.542;2024-03-22T12:44:00;18.30;98.60
45012;DHT22;63444;48.148;11.542;2024-03-22T12:46:26;18.30;98.60
45012;DHT22;63444;48.148;11.542;2024-03-22T12:48:52;18.40;98.50
45012;DHT22;63444;48.148;11.542;2024-03-22T12:51:18;18.50;98.90
45012;DHT22;63444;48.148;11.542;2024-03-22T12:53:44;18.50;98.80
45012;DHT22;63444;48.148;11.542;2024-03-22T12:56:11;18.60;98.50
45012;DHT22;63444;48.148;11.542;2024-03-22T12:58:37;18.60;98.70
45012;DHT22;63444;48.148;11.542;2024-03-22T13:01:04;18.70;98.70
45012;DHT22;63444;48.148;11.542;2024-03-22T13:03:33;18.70;97.90
45012;DHT22;63444;48.148;11.542;2024-03-22T13:05:59;18.60;98.20
45012;DHT22;63444;48.148;11.542;2024-03-22T13:08:25;18.60;98.60
45012;DHT22;63444;48.148;11.542;2024-03-22T13:10:50;18.60;98.90
45012;DHT22;63444;48.148;11.542;2024-03-22T13:13:17;18.60;98.80
45012;DHT22;63444;48.148;11.542;2024-03-22T13:15:43;18.70;98.90
45012;DHT22;63444;48.148;11.542;2024-03-22T13:18:09;18.70;98.40
45012;DHT22;63444;48.148;11.542;2024-03-22T13:20:35;18.70;98.40
45012;DHT22;63444;48.148;11.542;2024-03-22T13:23:02;18.80;98.60
45012;DHT22;63444;48.148;11.542;2024-03-22T13:25:28;18.80;98.40
45012;DHT22;63444;48.148;11.542;2024-03-22T13:27:54;18.80;98.00
45012;DHT22;63444;48.148;11.542;2024-03-22T13:30:19;18.70;98.10
45012;DHT22;63444;48.148;11.542;2024-03-22T13:32:45;18.70;98.30
45012;DHT22;63444;48.148;11.542;2024-03-22T13:35:11;18.70;98.10
45012;DHT22;63444;48.148;11.542;2024-03-22T13:37:37;18.70;97.50
45012;DHT22;63444;48.148;11.542;2024-03-22T13:40:03;18.60;97.50
45012;DHT22;63444;48.148;11.542;2024-03-22T13:42:29;18.70;97.40
45012;DHT22;63444;48.148;11.542;2024-03-22T13:44:55;18.70;97.30
45012;DHT22;63444;48.148;11.542;2024-03-22T13:47:23;18.70;97.30
45012;DHT22;63444;48.148;11.542;2024-03-22T13:49:50;18.70;97.00
45012;DHT22;63444;48.148;11.542;2024-03-22T13:52:15;18.70;97.10
45012;DHT22;63444;48.148;11.542;2024-03-22T13:54:41;18.70;97.10
45012;DHT22;63444;48.148;11.542;2024-03-22T13:57:07;18.70;97.20
45012;DHT22;63444;48.148;11.542;2024-03-22T13:59:33;18.70;96.90
45012;DHT22;63444;48.148;11.542;2024-03-22T14:01:59;18.70;97.00
45012;DHT22;63444;48.148;11.542;2024-03-22T14:04:24;18.70;96.90
45012;DHT22;63444;48.148;11.542;2024-03-22T14:06:52;18.60;96.80
45012;DHT22;63444;48.148;11.542;2024-03-22T14:09:18;18.60;96.80
45012;DHT22;63444;48.148;11.542;2024-03-22T14:11:44;18.60;97.10
45012;DHT22;63444;48.148;11.542;2024-03-22T14:14:10;18.50;97.00
45012;DHT22;63444;48.148;11.542;2024-03-22T14:16:40;18.50;97.00
45012;DHT22;63444;48.148;11.542;2024-03-22T14:19:07;18.50;97.00
45012;DHT22;63444;48.148;11.542;2024-03-22T14:21:34;18.50;96.80
45012;DHT22;63444;48.148;11.542;2024-03-22T14:24:00;18.50;97.00
45012;DHT22;63444;48.148;11.542;2024-03-22T14:26:26;18.50;96.30
45012;DHT22;63444;48.148;11.542;2024-03-22T14:28:52;18.50;96.10
45012;DHT22;63444;48.148;11.542;2024-03-22T14:31:18;18.40;95.70
45012;DHT22;63444;48.148;11.542;2024-03-22T14:33:44;18.40;95.40
45012;DHT22;63444;48.148;11.542;2024-03-22T14:36:10;18.40;95.20
45012;DHT22;63444;48.148;11.542;2024-03-22T14:38:37;18.30;95.40
45012;DHT22;63444;48.148;11.542;2024-03-22T14:41:03;18.30;95.70
45012;DHT22;63444;48.148;11.542;2024-03-22T14:43:29;18.30;95.70
45012;DHT22;63444;48.148;11.542;2024-03-22T14:45:57;18.30;96.00
45012;DHT22;63444;48.148;11.542;2024-03-22T14:48:23;18.40;96.00
45012;DHT22;63444;48.148;11.542;2024-03-22T14:50:49;18.40;95.80
45012;DHT22;63444;48.148;11.542;2024-03-22T14:53:16;18.40;95.80
45012;DHT22;63444;48.148;11.542;2024-03-22T14:56:00;18.40;95.70
45012;DHT22;63444;48.148;11.542;2024-03-22T14:58:33;18.40;95.60
45012;DHT22;63444;48.148;11.542;2024-03-22T15:01:04;18.40;95.40
45012;DHT22;63444;48.148;11.542;2024-03-22T15:03:31;18.40;95.00
45012;DHT22;63444;48.148;11.542;2024-03-22T15:05:58;18.40;95.10
45012;DHT22;63444;48.148;11.542;2024-03-22T15:08:26;18.40;95.20
45012;DHT22;63444;48.148;11.542;2024-03-22T15:10:52;18.40;91.20
45012;DHT22;63444;48.148;11.542;2024-03-22T15:13:18;18.40;90.90
45012;DHT22;63444;48.148;11.542;2024-03-22T15:15:55;18.40;91.00
45012;DHT22;63444;48.148;11.542;2024-03-22T15:18:22;18.30;91.10